sensor_id;sensor_type;location;lat;lon;timestamp;temperature;humidity
71523;HTU21D;59343;51.102;5.884;2023-09-12T00:01:41;22.64;77.18
71523;HTU21D;59343;51.102;5.884;2023-09-12T00:04:11;22.62;77.59
71523;HTU21D;59343;51.102;5.884;2023-09-12T00:06:40;22.67;77.66
71523;HTU21D;59343;51.102;5.884;2023-09-12T00:09:08;22.70;77.72
71523;HTU21D;59343;51.102;5.884;2023-09-12T00:11:40;22.73;77.87
71523;HTU21D;59343;51.102;5.884;2023-09-12T00:14:09;22.72;77.67
71523;HTU21D;59343;51.102;5.884;2023-09-12T00:16:35;22.72;77.62
71523;HTU21D;59343;51.102;5.884;2023-09-12T00:19:02;22.70;77.59
71523;HTU21D;59343;51.102;5.884;2023-09-12T00:21:28;22.73;77.62
71523;HTU21D;59343;51.102;5.884;2023-09-12T00:23:55;22.75;77.82
71523;HTU21D;59343;51.102;5.884;2023-09-12T00:26:21;22.75;78.08
71523;HTU21D;59343;51.102;5.884;2023-09-12T00:28:48;22.75;78.15
71523;HTU21D;59343;51.102;5.884;2023-09-12T00:31:14;22.71;78.62
71523;HTU21D;59343;51.102;5.884;2023-09-12T00:33:40;22.69;78.73
71523;HTU21D;59343;51.102;5.884;2023-09-12T00:36:06;22.67;78.66
71523;HTU21D;59343;51.102;5.884;2023-09-12T00:38:32;22.67;78.76
71523;HTU21D;59343;51.102;5.884;2023-09-12T00:40:57;22.66;78.96
71523;HTU21D;59343;51.102;5.884;2023-09-12T00:43:23;22.65;78.88
71523;HTU21D;59343;51.102;5.884;2023-09-12T00:45:49;22.64;78.97
71523;HTU21D;59343;51.102;5.884;2023-09-12T00:48:17;22.61;79.16
71523;HTU21D;59343;51.102;5.884;2023-09-12T00:50:46;22.61;79.07
71523;HTU21D;59343;51.102;5.884;2023-09-12T00:53:15;22.58;78.75
71523;HTU21D;59343;51.102;5.884;2023-09-12T00:55:46;22.62;78.25
71523;HTU21D;59343;51.102;5.884;2023-09-12T00:58:15;22.61;78.27
71523;HTU21D;59343;51.102;5.884;2023-09-12T01:00:41;22.60;78.67
71523;HTU21D;59343;51.102;5.884;2023-09-12T01:03:08;22.57;78.71
71523;HTU21D;59343;51.102;5.884;2023-09-12T01:05:35;22.55;78.30
71523;HTU21D;59343;51.102;5.884;2023-09-12T01:08:01;22.52;78.38
71523;HTU21D;59343;51.102;5.884;2023-09-12T01:10:28;22.47;78.71
71523;HTU21D;59343;51.102;5.884;2023-09-12T01:12:54;22.46;78.92
71523;HTU21D;59343;51.102;5.884;2023-09-12T01:15:20;22.44;79.20
71523;HTU21D;59343;51.102;5.884;2023-09-12T01:17:46;22.46;79.30
71523;HTU21D;59343;51.102;5.884;2023-09-12T01:20:25;22.44;79.40
71523;HTU21D;59343;51.102;5.884;2023-09-12T01:26:23;22.38;79.17
71523;HTU21D;59343;51.102;5.884;2023-09-12T01:28:24;22.33;79.62
71523;HTU21D;59343;51.102;5.884;2023-09-12T01:30:55;22.28;80.18
71523;HTU21D;59343;51.102;5.884;2023-09-12T01:33:21;22.31;79.91
71523;HTU21D;59343;51.102;5.884;2023-09-12T01:35:47;22.35;80.19
71523;HTU21D;59343;51.102;5.884;2023-09-12T01:38:14;22.34;80.14
71523;HTU21D;59343;51.102;5.884;2023-09-12T01:40:49;22.33;79.97
71523;HTU21D;59343;51.102;5.884;2023-09-12T01:43:19;22.34;80.10
71523;HTU21D;59343;51.102;5.884;2023-09-12T01:45:48;22.36;80.20
71523;HTU21D;59343;51.102;5.884;2023-09-12T01:48:20;22.36;79.99
71523;HTU21D;59343;51.102;5.884;2023-09-12T01:50:48;22.35;80.04
71523;HTU21D;59343;51.102;5.884;2023-09-12T01:53:16;22.31;79.97
71523;HTU21D;59343;51.102;5.884;2023-09-12T01:55:44;22.29;79.81
71523;HTU21D;59343;51.102;5.884;2023-09-12T01:58:12;22.33;79.62
71523;HTU21D;59343;51.102;5.884;2023-09-12T02:00:40;22.29;79.42
71523;HTU21D;59343;51.102;5.884;2023-09-12T02:03:06;22.28;79.53
71523;HTU21D;59343;51.102;5.884;2023-09-12T02:05:32;22.31;79.27
71523;HTU21D;59343;51.102;5.884;2023-09-12T02:07:58;22.32;79.39
71523;HTU21D;59343;51.102;5.884;2023-09-12T02:10:28;22.31;79.80
71523;HTU21D;59343;51.102;5.884;2023-09-12T02:12:54;22.28;79.67
71523;HTU21D;59343;51.102;5.884;2023-09-12T02:15:20;22.25;79.75
71523;HTU21D;59343;51.102;5.884;2023-09-12T02:17:46;22.19;80.06
71523;HTU21D;59343;51.102;5.884;2023-09-12T02:20:12;22.17;80.32
71523;HTU21D;59343;51.102;5.884;2023-09-12T02:22:38;22.17;80.62
71523;HTU21D;59343;51.102;5.884;2023-09-12T02:25:05;22.19;80.72
71523;HTU21D;59343;51.102;5.884;2023-09-12T02:27:31;22.22;80.56
71523;HTU21D;59343;51.102;5.884;2023-09-12T02:29:57;22.24;80.48
71523;HTU21D;59343;51.102;5.884;2023-09-12T02:32:24;22.22;80.30
71523;HTU21D;59343;51.102;5.884;2023-09-12T02:34:50;22.20;80.37
71523;HTU21D;59343;51.102;5.884;2023-09-12T02:37:19;22.20;80.56
71523;HTU21D;59343;51.102;5.884;2023-09-12T02:39:45;22.20;80.65
71523;HTU21D;59343;51.102;5.884;2023-09-12T02:42:11;22.23;80.36
71523;HTU21D;59343;51.102;5.884;2023-09-12T02:44:37;22.20;80.11
71523;HTU21D;59343;51.102;5.884;2023-09-12T02:47:04;22.17;80.16
71523;HTU21D;59343;51.102;5.884;2023-09-12T02:49:30;22.12;80.18
71523;HTU21D;59343;51.102;5.884;2023-09-12T02:51:56;22.04;80.53
71523;HTU21D;59343;51.102;5.884;2023-09-12T02:54:22;21.83;81.12
71523;HTU21D;59343;51.102;5.884;2023-09-12T02:56:48;21.68;82.01
71523;HTU21D;59343;51.102;5.884;2023-09-12T02:59:14;21.67;82.55
71523;HTU21D;59343;51.102;5.884;2023-09-12T03:01:40;21.74;82.47
71523;HTU21D;59343;51.102;5.884;2023-09-12T03:04:06;21.82;82.13
71523;HTU21D;59343;51.102;5.884;2023-09-12T03:06:32;21.88;81.91
71523;HTU21D;59343;51.102;5.884;2023-09-12T03:08:58;21.91;81.82
71523;HTU21D;59343;51.102;5.884;2023-09-12T03:11:27;21.91;81.86
71523;HTU21D;59343;51.102;5.884;2023-09-12T03:13:54;21.93;81.78
71523;HTU21D;59343;51.102;5.884;2023-09-12T03:16:19;21.96;81.62
71523;HTU21D;59343;51.102;5.884;2023-09-12T03:18:46;21.98;81.72
71523;HTU21D;59343;51.102;5.884;2023-09-12T03:21:12;22.01;81.62
71523;HTU21D;59343;51.102;5.884;2023-09-12T03:23:38;21.98;81.97
71523;HTU21D;59343;51.102;5.884;2023-09-12T03:26:05;21.98;82.26
71523;HTU21D;59343;51.102;5.884;2023-09-12T03:28:32;21.96;82.13
71523;HTU21D;59343;51.102;5.884;2023-09-12T03:31:06;21.96;82.13
71523;HTU21D;59343;51.102;5.884;2023-09-12T03:33:33;21.97;82.10
71523;HTU21D;59343;51.102;5.884;2023-09-12T03:35:59;21.97;82.20
71523;HTU21D;59343;51.102;5.884;2023-09-12T03:38:25;21.95;82.24
71523;HTU21D;59343;51.102;5.884;2023-09-12T03:40:51;21.97;82.25
71523;HTU21D;59343;51.102;5.884;2023-09-12T03:43:17;21.99;82.33
71523;HTU21D;59343;51.102;5.884;2023-09-12T03:45:43;21.97;82.36
71523;HTU21D;59343;51.102;5.884;2023-09-12T03:48:09;21.90;82.55
71523;HTU21D;59343;51.102;5.884;2023-09-12T03:50:35;21.88;82.90
71523;HTU21D;59343;51.102;5.884;2023-09-12T03:53:02;21.89;82.94
71523;HTU21D;59343;51.102;5.884;2023-09-12T03:55:29;21.92;83.03
71523;HTU21D;59343;51.102;5.884;2023-09-12T03:57:55;21.92;83.06
71523;HTU21D;59343;51.102;5.884;2023-09-12T04:00:21;21.92;83.04
71523;HTU21D;59343;51.102;5.884;2023-09-12T04:02:49;21.93;82.98
71523;HTU21D;59343;51.102;5.884;2023-09-12T04:05:15;21.94;82.97
71523;HTU21D;59343;51.102;5.884;2023-09-12T04:07:41;21.95;82.92
71523;HTU21D;59343;51.102;5.884;2023-09-12T04:10:08;21.95;82.71
71523;HTU21D;59343;51.102;5.884;2023-09-12T04:12:34;21.97;82.52
71523;HTU21D;59343;51.102;5.884;2023-09-12T04:15:00;21.99;82.21
71523;HTU21D;59343;51.102;5.884;2023-09-12T04:17:26;22.01;82.16
71523;HTU21D;59343;51.102;5.884;2023-09-12T04:19:52;21.98;82.44
71523;HTU21D;59343;51.102;5.884;2023-09-12T04:22:18;22.01;82.26
71523;HTU21D;59343;51.102;5.884;2023-09-12T04:24:44;21.99;82.09
71523;HTU21D;59343;51.102;5.884;2023-09-12T04:27:10;21.96;82.27
71523;HTU21D;59343;51.102;5.884;2023-09-12T04:29:36;21.96;82.42
71523;HTU21D;59343;51.102;5.884;2023-09-12T04:32:03;21.94;82.23
71523;HTU21D;59343;51.102;5.884;2023-09-12T04:34:30;21.92;82.10
71523;HTU21D;59343;51.102;5.884;2023-09-12T04:36:59;21.92;82.17
71523;HTU21D;59343;51.102;5.884;2023-09-12T04:39:32;21.91;82.49
71523;HTU21D;59343;51.102;5.884;2023-09-12T04:42:03;21.85;82.51
71523;HTU21D;59343;51.102;5.884;2023-09-12T04:44:40;21.84;82.59
71523;HTU21D;59343;51.102;5.884;2023-09-12T04:47:18;21.81;82.72
71523;HTU21D;59343;51.102;5.884;2023-09-12T04:49:58;21.74;83.09
71523;HTU21D;59343;51.102;5.884;2023-09-12T04:52:56;21.73;83.39
71523;HTU21D;59343;51.102;5.884;2023-09-12T04:55:30;21.73;83.31
71523;HTU21D;59343;51.102;5.884;2023-09-12T05:03:40;21.60;83.61
71523;HTU21D;59343;51.102;5.884;2023-09-12T05:06:21;21.55;83.74
71523;HTU21D;59343;51.102;5.884;2023-09-12T05:09:02;21.54;83.58
71523;HTU21D;59343;51.102;5.884;2023-09-12T05:11:34;21.52;83.56
71523;HTU21D;59343;51.102;5.884;2023-09-12T05:14:02;21.54;83.61
71523;HTU21D;59343;51.102;5.884;2023-09-12T05:16:31;21.53;83.29
71523;HTU21D;59343;51.102;5.884;2023-09-12T05:19:00;21.57;83.00
71523;HTU21D;59343;51.102;5.884;2023-09-12T05:21:26;21.55;82.76
71523;HTU21D;59343;51.102;5.884;2023-09-12T05:23:52;21.52;82.77
71523;HTU21D;59343;51.102;5.884;2023-09-12T05:26:18;21.50;83.15
71523;HTU21D;59343;51.102;5.884;2023-09-12T05:28:44;21.48;84.00
71523;HTU21D;59343;51.102;5.884;2023-09-12T05:31:11;21.51;82.93
71523;HTU21D;59343;51.102;5.884;2023-09-12T05:33:37;21.48;83.19
71523;HTU21D;59343;51.102;5.884;2023-09-12T05:36:03;21.50;83.52
71523;HTU21D;59343;51.102;5.884;2023-09-12T05:38:29;21.48;83.47
71523;HTU21D;59343;51.102;5.884;2023-09-12T05:40:56;21.37;83.61
71523;HTU21D;59343;51.102;5.884;2023-09-12T05:43:22;21.29;84.10
71523;HTU21D;59343;51.102;5.884;2023-09-12T05:45:48;21.21;84.38
71523;HTU21D;59343;51.102;5.884;2023-09-12T05:48:14;21.14;84.86
71523;HTU21D;59343;51.102;5.884;2023-09-12T05:50:40;21.08;85.26
71523;HTU21D;59343;51.102;5.884;2023-09-12T05:53:08;21.13;85.36
71523;HTU21D;59343;51.102;5.884;2023-09-12T05:55:34;21.22;84.93
71523;HTU21D;59343;51.102;5.884;2023-09-12T05:58:00;21.29;84.75
71523;HTU21D;59343;51.102;5.884;2023-09-12T06:00:29;21.33;84.67
71523;HTU21D;59343;51.102;5.884;2023-09-12T06:02:55;21.31;84.58
71523;HTU21D;59343;51.102;5.884;2023-09-12T06:05:24;21.32;84.79
71523;HTU21D;59343;51.102;5.884;2023-09-12T06:07:50;21.34;84.98
71523;HTU21D;59343;51.102;5.884;2023-09-12T06:10:19;21.38;85.09
71523;HTU21D;59343;51.102;5.884;2023-09-12T06:12:45;21.38;85.23
71523;HTU21D;59343;51.102;5.884;2023-09-12T06:15:11;21.38;84.90
71523;HTU21D;59343;51.102;5.884;2023-09-12T06:17:37;21.43;84.87
71523;HTU21D;59343;51.102;5.884;2023-09-12T06:20:03;21.44;84.84
71523;HTU21D;59343;51.102;5.884;2023-09-12T06:22:32;21.45;84.82
71523;HTU21D;59343;51.102;5.884;2023-09-12T06:24:58;21.46;84.53
71523;HTU21D;59343;51.102;5.884;2023-09-12T06:27:29;21.45;84.50
71523;HTU21D;59343;51.102;5.884;2023-09-12T06:29:58;21.43;84.44
71523;HTU21D;59343;51.102;5.884;2023-09-12T06:32:24;21.37;84.54
71523;HTU21D;59343;51.102;5.884;2023-09-12T06:34:53;21.34;84.83
71523;HTU21D;59343;51.102;5.884;2023-09-12T06:37:20;21.29;85.02
71523;HTU21D;59343;51.102;5.884;2023-09-12T06:39:49;21.24;85.26
71523;HTU21D;59343;51.102;5.884;2023-09-12T06:42:16;21.24;85.36
71523;HTU21D;59343;51.102;5.884;2023-09-12T06:44:42;21.32;85.11
71523;HTU21D;59343;51.102;5.884;2023-09-12T06:47:08;21.37;84.87
71523;HTU21D;59343;51.102;5.884;2023-09-12T06:49:36;21.39;84.84
71523;HTU21D;59343;51.102;5.884;2023-09-12T06:52:03;21.44;84.81
71523;HTU21D;59343;51.102;5.884;2023-09-12T06:54:29;21.45;84.80
71523;HTU21D;59343;51.102;5.884;2023-09-12T06:56:57;21.46;84.85
71523;HTU21D;59343;51.102;5.884;2023-09-12T06:59:23;21.45;84.81
71523;HTU21D;59343;51.102;5.884;2023-09-12T07:01:49;21.47;84.97
71523;HTU21D;59343;51.102;5.884;2023-09-12T07:04:15;21.50;85.00
71523;HTU21D;59343;51.102;5.884;2023-09-12T07:06:41;21.52;85.09
71523;HTU21D;59343;51.102;5.884;2023-09-12T07:09:08;21.57;85.13
71523;HTU21D;59343;51.102;5.884;2023-09-12T07:11:35;21.58;85.03
71523;HTU21D;59343;51.102;5.884;2023-09-12T07:14:00;21.60;84.97
71523;HTU21D;59343;51.102;5.884;2023-09-12T07:16:26;21.65;85.03
71523;HTU21D;59343;51.102;5.884;2023-09-12T07:18:52;21.70;85.09
71523;HTU21D;59343;51.102;5.884;2023-09-12T07:21:18;21.78;85.19
71523;HTU21D;59343;51.102;5.884;2023-09-12T07:23:44;21.85;85.15
71523;HTU21D;59343;51.102;5.884;2023-09-12T07:26:14;21.93;85.19
71523;HTU21D;59343;51.102;5.884;2023-09-12T07:28:40;21.92;84.64
71523;HTU21D;59343;51.102;5.884;2023-09-12T07:31:07;21.96;84.78
71523;HTU21D;59343;51.102;5.884;2023-09-12T07:33:33;22.08;84.67
71523;HTU21D;59343;51.102;5.884;2023-09-12T07:35:58;22.14;84.61
71523;HTU21D;59343;51.102;5.884;2023-09-12T07:38:25;22.14;84.51
71523;HTU21D;59343;51.102;5.884;2023-09-12T07:40:51;22.21;84.55
71523;HTU21D;59343;51.102;5.884;2023-09-12T07:43:17;22.29;84.55
71523;HTU21D;59343;51.102;5.884;2023-09-12T07:45:42;22.35;84.20
71523;HTU21D;59343;51.102;5.884;2023-09-12T07:48:10;22.39;84.10
71523;HTU21D;59343;51.102;5.884;2023-09-12T07:50:37;22.48;83.87
71523;HTU21D;59343;51.102;5.884;2023-09-12T07:53:07;22.56;83.57
71523;HTU21D;59343;51.102;5.884;2023-09-12T07:55:37;22.64;83.41
71523;HTU21D;59343;51.102;5.884;2023-09-12T07:58:14;22.73;83.49
71523;HTU21D;59343;51.102;5.884;2023-09-12T08:00:40;22.82;83.33
71523;HTU21D;59343;51.102;5.884;2023-09-12T08:03:06;22.83;82.87
71523;HTU21D;59343;51.102;5.884;2023-09-12T08:05:32;22.87;81.87
71523;HTU21D;59343;51.102;5.884;2023-09-12T08:07:58;22.90;80.93
71523;HTU21D;59343;51.102;5.884;2023-09-12T08:10:24;22.88;81.08
71523;HTU21D;59343;51.102;5.884;2023-09-12T08:12:50;22.92;81.52
71523;HTU21D;59343;51.102;5.884;2023-09-12T08:15:16;23.00;81.60
71523;HTU21D;59343;51.102;5.884;2023-09-12T08:17:41;23.07;81.90
71523;HTU21D;59343;51.102;5.884;2023-09-12T08:20:08;23.17;82.20
71523;HTU21D;59343;51.102;5.884;2023-09-12T08:22:37;23.34;81.05
71523;HTU21D;59343;51.102;5.884;2023-09-12T08:25:03;23.40;80.25
71523;HTU21D;59343;51.102;5.884;2023-09-12T08:27:30;23.36;79.95
71523;HTU21D;59343;51.102;5.884;2023-09-12T08:29:56;23.31;79.89
71523;HTU21D;59343;51.102;5.884;2023-09-12T08:32:22;23.32;79.72
71523;HTU21D;59343;51.102;5.884;2023-09-12T08:34:48;23.37;78.79
71523;HTU21D;59343;51.102;5.884;2023-09-12T08:37:13;23.45;78.57
71523;HTU21D;59343;51.102;5.884;2023-09-12T08:39:42;23.77;78.15
71523;HTU21D;59343;51.102;5.884;2023-09-12T08:42:16;24.19;77.00
71523;HTU21D;59343;51.102;5.884;2023-09-12T08:44:42;24.33;74.25
71523;HTU21D;59343;51.102;5.884;2023-09-12T08:47:11;24.34;73.54
71523;HTU21D;59343;51.102;5.884;2023-09-12T08:49:38;24.29;73.73
71523;HTU21D;59343;51.102;5.884;2023-09-12T08:52:05;24.34;74.90
71523;HTU21D;59343;51.102;5.884;2023-09-12T08:54:32;24.42;74.43
71523;HTU21D;59343;51.102;5.884;2023-09-12T08:57:01;24.51;75.96
71523;HTU21D;59343;51.102;5.884;2023-09-12T08:59:31;24.75;76.64
71523;HTU21D;59343;51.102;5.884;2023-09-12T09:02:00;24.97;74.46
71523;HTU21D;59343;51.102;5.884;2023-09-12T09:04:29;24.97;72.77
71523;HTU21D;59343;51.102;5.884;2023-09-12T09:06:58;24.89;72.83
71523;HTU21D;59343;51.102;5.884;2023-09-12T09:09:26;25.01;74.08
71523;HTU21D;59343;51.102;5.884;2023-09-12T09:11:52;25.15;73.28
71523;HTU21D;59343;51.102;5.884;2023-09-12T09:14:18;25.14;71.95
71523;HTU21D;59343;51.102;5.884;2023-09-12T09:16:44;25.04;71.18
71523;HTU21D;59343;51.102;5.884;2023-09-12T09:19:10;24.92;71.48
71523;HTU21D;59343;51.102;5.884;2023-09-12T09:21:38;24.91;72.46
71523;HTU21D;59343;51.102;5.884;2023-09-12T09:24:08;24.84;72.29
71523;HTU21D;59343;51.102;5.884;2023-09-12T09:26:49;24.77;72.13
71523;HTU21D;59343;51.102;5.884;2023-09-12T09:29:20;24.72;71.71
71523;HTU21D;59343;51.102;5.884;2023-09-12T09:31:48;24.62;70.96
71523;HTU21D;59343;51.102;5.884;2023-09-12T09:34:17;24.55;70.85
71523;HTU21D;59343;51.102;5.884;2023-09-12T09:36:54;24.47;71.26
71523;HTU21D;59343;51.102;5.884;2023-09-12T09:39:26;24.50;72.60
71523;HTU21D;59343;51.102;5.884;2023-09-12T09:41:56;24.56;72.63
71523;HTU21D;59343;51.102;5.884;2023-09-12T09:44:25;24.57;72.89
71523;HTU21D;59343;51.102;5.884;2023-09-12T09:46:59;24.56;72.19
71523;HTU21D;59343;51.102;5.884;2023-09-12T09:49:26;24.48;71.47
71523;HTU21D;59343;51.102;5.884;2023-09-12T09:51:54;24.42;70.82
71523;HTU21D;59343;51.102;5.884;2023-09-12T09:54:24;24.39;70.32
71523;HTU21D;59343;51.102;5.884;2023-09-12T09:56:57;24.36;70.15
71523;HTU21D;59343;51.102;5.884;2023-09-12T09:59:25;24.39;69.72
71523;HTU21D;59343;51.102;5.884;2023-09-12T10:01:56;24.46;70.26
71523;HTU21D;59343;51.102;5.884;2023-09-12T10:04:27;24.51;70.59
71523;HTU21D;59343;51.102;5.884;2023-09-12T10:06:55;24.58;70.55
71523;HTU21D;59343;51.102;5.884;2023-09-12T10:09:25;24.58;70.31
71523;HTU21D;59343;51.102;5.884;2023-09-12T10:11:52;24.61;70.10
71523;HTU21D;59343;51.102;5.884;2023-09-12T10:14:20;24.73;70.58
71523;HTU21D;59343;51.102;5.884;2023-09-12T10:16:49;24.79;69.79
71523;HTU21D;59343;51.102;5.884;2023-09-12T10:19:24;24.79;69.57
71523;HTU21D;59343;51.102;5.884;2023-09-12T10:24:27;25.01;70.39
71523;HTU21D;59343;51.102;5.884;2023-09-12T10:26:55;25.10;70.07
71523;HTU21D;59343;51.102;5.884;2023-09-12T10:29:21;25.14;69.78
71523;HTU21D;59343;51.102;5.884;2023-09-12T10:31:49;25.19;69.25
71523;HTU21D;59343;51.102;5.884;2023-09-12T10:34:16;25.25;68.87
71523;HTU21D;59343;51.102;5.884;2023-09-12T10:36:43;25.30;68.49
71523;HTU21D;59343;51.102;5.884;2023-09-12T10:39:11;25.28;68.10
71523;HTU21D;59343;51.102;5.884;2023-09-12T10:41:39;25.30;67.98
71523;HTU21D;59343;51.102;5.884;2023-09-12T10:44:11;25.32;68.17
71523;HTU21D;59343;51.102;5.884;2023-09-12T10:46:44;25.29;68.39
71523;HTU21D;59343;51.102;5.884;2023-09-12T10:49:12;25.28;68.59
71523;HTU21D;59343;51.102;5.884;2023-09-12T10:51:45;25.28;68.60
71523;HTU21D;59343;51.102;5.884;2023-09-12T10:54:26;25.22;68.39
71523;HTU21D;59343;51.102;5.884;2023-09-12T10:57:05;25.25;68.69
71523;HTU21D;59343;51.102;5.884;2023-09-12T10:59:31;25.36;68.52
71523;HTU21D;59343;51.102;5.884;2023-09-12T11:02:32;25.42;67.86
71523;HTU21D;59343;51.102;5.884;2023-09-12T11:08:01;25.58;67.99
71523;HTU21D;59343;51.102;5.884;2023-09-12T11:10:29;25.63;67.35
71523;HTU21D;59343;51.102;5.884;2023-09-12T11:12:58;25.57;67.15
71523;HTU21D;59343;51.102;5.884;2023-09-12T11:15:27;25.52;67.26
71523;HTU21D;59343;51.102;5.884;2023-09-12T11:18:04;25.45;67.01
71523;HTU21D;59343;51.102;5.884;2023-09-12T11:21:08;25.34;67.23
71523;HTU21D;59343;51.102;5.884;2023-09-12T11:23:34;25.33;67.48
71523;HTU21D;59343;51.102;5.884;2023-09-12T11:26:08;25.36;67.62
71523;HTU21D;59343;51.102;5.884;2023-09-12T11:28:36;25.40;67.38
71523;HTU21D;59343;51.102;5.884;2023-09-12T11:31:02;25.43;66.98
71523;HTU21D;59343;51.102;5.884;2023-09-12T11:33:28;25.49;66.67
71523;HTU21D;59343;51.102;5.884;2023-09-12T11:35:55;25.52;66.41
71523;HTU21D;59343;51.102;5.884;2023-09-12T11:38:28;25.56;66.03
71523;HTU21D;59343;51.102;5.884;2023-09-12T11:40:55;25.58;66.20
71523;HTU21D;59343;51.102;5.884;2023-09-12T11:43:26;25.53;66.37
71523;HTU21D;59343;51.102;5.884;2023-09-12T11:45:54;25.46;66.92
71523;HTU21D;59343;51.102;5.884;2023-09-12T11:48:21;25.40;67.10
71523;HTU21D;59343;51.102;5.884;2023-09-12T11:50:53;25.40;67.25
71523;HTU21D;59343;51.102;5.884;2023-09-12T11:53:24;25.49;68.02
71523;HTU21D;59343;51.102;5.884;2023-09-12T11:55:54;25.57;67.84
71523;HTU21D;59343;51.102;5.884;2023-09-12T11:58:21;25.60;67.39
71523;HTU21D;59343;51.102;5.884;2023-09-12T12:00:50;25.59;66.90
71523;HTU21D;59343;51.102;5.884;2023-09-12T12:03:18;25.64;66.98
71523;HTU21D;59343;51.102;5.884;2023-09-12T12:05:44;25.65;66.76
71523;HTU21D;59343;51.102;5.884;2023-09-12T12:08:11;25.64;66.81
71523;HTU21D;59343;51.102;5.884;2023-09-12T12:10:37;25.74;66.49
71523;HTU21D;59343;51.102;5.884;2023-09-12T12:13:11;25.86;66.12
71523;HTU21D;59343;51.102;5.884;2023-09-12T12:15:37;26.04;66.06
71523;HTU21D;59343;51.102;5.884;2023-09-12T12:18:28;26.22;65.46
71523;HTU21D;59343;51.102;5.884;2023-09-12T12:20:59;26.35;65.06
71523;HTU21D;59343;51.102;5.884;2023-09-12T12:23:45;26.48;64.39
71523;HTU21D;59343;51.102;5.884;2023-09-12T12:26:10;26.51;64.77
71523;HTU21D;59343;51.102;5.884;2023-09-12T12:28:36;26.58;64.57
71523;HTU21D;59343;51.102;5.884;2023-09-12T12:31:03;26.65;64.46
71523;HTU21D;59343;51.102;5.884;2023-09-12T12:33:30;26.71;64.07
71523;HTU21D;59343;51.102;5.884;2023-09-12T12:36:04;26.66;63.76
71523;HTU21D;59343;51.102;5.884;2023-09-12T12:38:35;26.62;63.63
71523;HTU21D;59343;51.102;5.884;2023-09-12T12:41:01;26.60;63.77
71523;HTU21D;59343;51.102;5.884;2023-09-12T12:43:27;26.51;63.55
71523;HTU21D;59343;51.102;5.884;2023-09-12T12:45:56;26.36;63.56
71523;HTU21D;59343;51.102;5.884;2023-09-12T12:48:48;26.23;63.76
71523;HTU21D;59343;51.102;5.884;2023-09-12T12:53:48;26.02;64.12
71523;HTU21D;59343;51.102;5.884;2023-09-12T12:56:17;26.07;64.49
71523;HTU21D;59343;51.102;5.884;2023-09-12T12:58:59;26.24;64.04
71523;HTU21D;59343;51.102;5.884;2023-09-12T13:01:28;26.46;64.03
71523;HTU21D;59343;51.102;5.884;2023-09-12T13:03:54;26.61;63.19
71523;HTU21D;59343;51.102;5.884;2023-09-12T13:06:22;26.75;62.99
71523;HTU21D;59343;51.102;5.884;2023-09-12T13:08:49;26.87;62.42
71523;HTU21D;59343;51.102;5.884;2023-09-12T13:11:16;26.96;61.57
71523;HTU21D;59343;51.102;5.884;2023-09-12T13:13:44;26.97;61.29
71523;HTU21D;59343;51.102;5.884;2023-09-12T13:16:14;26.97;60.67
71523;HTU21D;59343;51.102;5.884;2023-09-12T13:18:41;27.00;61.09
71523;HTU21D;59343;51.102;5.884;2023-09-12T13:21:07;27.05;60.65
71523;HTU21D;59343;51.102;5.884;2023-09-12T13:23:37;27.01;60.44
71523;HTU21D;59343;51.102;5.884;2023-09-12T13:26:08;26.91;60.31
71523;HTU21D;59343;51.102;5.884;2023-09-12T13:28:34;26.75;60.34
71523;HTU21D;59343;51.102;5.884;2023-09-12T13:31:00;26.63;60.41
71523;HTU21D;59343;51.102;5.884;2023-09-12T13:33:26;26.58;60.57
71523;HTU21D;59343;51.102;5.884;2023-09-12T13:35:52;26.60;60.54
71523;HTU21D;59343;51.102;5.884;2023-09-12T13:38:18;26.64;60.48
71523;HTU21D;59343;51.102;5.884;2023-09-12T13:40:46;26.65;60.03
71523;HTU21D;59343;51.102;5.884;2023-09-12T13:43:12;26.69;59.69
71523;HTU21D;59343;51.102;5.884;2023-09-12T13:45:45;26.76;59.71
71523;HTU21D;59343;51.102;5.884;2023-09-12T13:48:11;26.89;59.72
71523;HTU21D;59343;51.102;5.884;2023-09-12T13:50:38;26.99;59.70
71523;HTU21D;59343;51.102;5.884;2023-09-12T13:53:04;27.05;60.04
71523;HTU21D;59343;51.102;5.884;2023-09-12T13:55:36;27.06;60.44
71523;HTU21D;59343;51.102;5.884;2023-09-12T13:58:03;27.05;60.20
71523;HTU21D;59343;51.102;5.884;2023-09-12T14:00:34;27.08;60.45
71523;HTU21D;59343;51.102;5.884;2023-09-12T14:03:00;27.11;60.05
71523;HTU21D;59343;51.102;5.884;2023-09-12T14:05:26;27.17;60.70
71523;HTU21D;59343;51.102;5.884;2023-09-12T14:07:52;27.25;60.13
71523;HTU21D;59343;51.102;5.884;2023-09-12T14:10:18;27.26;59.83
71523;HTU21D;59343;51.102;5.884;2023-09-12T14:12:45;27.28;60.06
71523;HTU21D;59343;51.102;5.884;2023-09-12T14:15:12;27.34;59.24
71523;HTU21D;59343;51.102;5.884;2023-09-12T14:17:40;27.38;59.09
71523;HTU21D;59343;51.102;5.884;2023-09-12T14:20:07;27.36;58.70
71523;HTU21D;59343;51.102;5.884;2023-09-12T14:22:36;27.36;58.84
71523;HTU21D;59343;51.102;5.884;2023-09-12T14:25:02;27.40;58.44
71523;HTU21D;59343;51.102;5.884;2023-09-12T14:27:29;27.47;58.04
71523;HTU21D;59343;51.102;5.884;2023-09-12T14:29:57;27.49;57.55
71523;HTU21D;59343;51.102;5.884;2023-09-12T14:32:26;27.46;57.18
71523;HTU21D;59343;51.102;5.884;2023-09-12T14:34:52;27.46;57.17
71523;HTU21D;59343;51.102;5.884;2023-09-12T14:37:18;27.40;56.83
71523;HTU21D;59343;51.102;5.884;2023-09-12T14:39:47;27.37;56.82
71523;HTU21D;59343;51.102;5.884;2023-09-12T14:42:14;27.41;56.61
71523;HTU21D;59343;51.102;5.884;2023-09-12T14:44:41;27.40;56.51
71523;HTU21D;59343;51.102;5.884;2023-09-12T14:47:07;27.34;56.40
71523;HTU21D;59343;51.102;5.884;2023-09-12T14:49:35;27.32;56.72
71523;HTU21D;59343;51.102;5.884;2023-09-12T14:52:01;27.30;56.81
71523;HTU21D;59343;51.102;5.884;2023-09-12T14:54:27;27.30;56.68
71523;HTU21D;59343;51.102;5.884;2023-09-12T14:56:53;27.31;56.71
71523;HTU21D;59343;51.102;5.884;2023-09-12T14:59:19;27.28;57.00
71523;HTU21D;59343;51.102;5.884;2023-09-12T15:01:47;27.36;57.42
71523;HTU21D;59343;51.102;5.884;2023-09-12T15:05:01;27.49;57.05
71523;HTU21D;59343;51.102;5.884;2023-09-12T15:07:27;27.50;57.13
71523;HTU21D;59343;51.102;5.884;2023-09-12T15:09:57;27.38;57.53
71523;HTU21D;59343;51.102;5.884;2023-09-12T15:12:23;27.30;58.16
71523;HTU21D;59343;51.102;5.884;2023-09-12T15:14:50;27.25;58.41
71523;HTU21D;59343;51.102;5.884;2023-09-12T15:17:18;27.20;58.47
71523;HTU21D;59343;51.102;5.884;2023-09-12T15:19:44;27.16;58.96
71523;HTU21D;59343;51.102;5.884;2023-09-12T15:22:10;27.16;59.05
71523;HTU21D;59343;51.102;5.884;2023-09-12T15:24:35;27.12;58.99
71523;HTU21D;59343;51.102;5.884;2023-09-12T15:27:01;27.08;58.94
71523;HTU21D;59343;51.102;5.884;2023-09-12T15:29:27;27.06;58.74
71523;HTU21D;59343;51.102;5.884;2023-09-12T15:31:54;27.08;59.01
71523;HTU21D;59343;51.102;5.884;2023-09-12T15:34:20;27.07;58.96
71523;HTU21D;59343;51.102;5.884;2023-09-12T15:36:47;27.02;58.88
71523;HTU21D;59343;51.102;5.884;2023-09-12T15:39:17;26.98;59.64